| time (UTC) | temp C | wind direction | speed KPH | gust KPH | rain 1hr cm | rain 24hr cm | rain mn cm | humidity % | barometer mb |
| 20260508071519 | 17 | 330 | 11.3 | 19.3 | 0.00 | 0.71 | 0.71 | 64 | 1011.7 |
| 20260508070015 | 17 | 297 | 6.4 | 16.1 | 0.00 | 0.71 | 0.71 | 66 | 1011.6 |
| 20260508064511 | 17 | 306 | 6.4 | 16.1 | 0.00 | 0.71 | 0.71 | 68 | 1011.5 |
| 20260508063014 | 16 | 360 | 3.2 | 12.9 | 0.00 | 0.71 | 0.71 | 71 | 1011.3 |
| 20260508061506 | 16 | 323 | 8.0 | 16.1 | 0.00 | 0.71 | 0.71 | 72 | 1011.3 |
| 20260508060005 | 16 | 355 | 6.4 | 14.5 | 0.30 | 0.71 | 0.71 | 72 | 1011.2 |
| 20260508054504 | 16 | 5 | 8.0 | 16.1 | 0.30 | 0.71 | 0.71 | 73 | 1011.0 |
| 20260508053107 | 16 | 291 | 6.4 | 17.7 | 0.30 | 0.71 | 0.71 | 73 | 1010.6 |
| 20260508051556 | 16 | 327 | 8.0 | 14.5 | 0.33 | 0.71 | 0.71 | 73 | 1010.6 |
| 20260508050058 | 15 | 355 | 9.7 | 16.1 | 0.05 | 0.41 | 0.41 | 73 | 1010.5 |
| 20260508044548 | 15 | 324 | 6.4 | 16.1 | 0.13 | 0.41 | 0.41 | 74 | 1010.4 |
| 20260508043056 | 15 | 307 | 4.8 | 16.1 | 0.18 | 0.41 | 0.41 | 73 | 1010.1 |
| 20260508041550 | 15 | 311 | 4.8 | 11.3 | 0.23 | 0.38 | 0.38 | 73 | 1010.2 |
| 20260508040044 | 15 | 306 | 6.4 | 12.9 | 0.20 | 0.33 | 0.33 | 72 | 1010.2 |
| 20260508034542 | 15 | 360 | 4.8 | 14.5 | 0.13 | 0.25 | 0.25 | 71 | 1010.2 |
| 20260508033039 | 16 | 337 | 12.9 | 19.3 | 0.10 | 0.23 | 0.23 | 69 | 1010.2 |
| 20260508031537 | 16 | 315 | 8.0 | 16.1 | 0.05 | 0.15 | 0.15 | 68 | 1010.1 |
| 20260508030041 | 16 | 312 | 9.7 | 17.7 | 0.05 | 0.15 | 0.15 | 68 | 1010.2 |
| 20260508024533 | 16 | 351 | 6.4 | 14.5 | 0.08 | 0.15 | 0.15 | 68 | 1010.1 |
| 20260508023031 | 16 | 14 | 4.8 | 12.9 | 0.10 | 0.13 | 0.13 | 67 | 1010.0 |
| 20260508021528 | 16 | 355 | 4.8 | 9.7 | 0.13 | 0.13 | 0.13 | 66 | 1010.0 |
| 20260508020030 | 17 | 10 | 4.8 | 9.7 | 0.08 | 0.08 | 0.08 | 65 | 1009.9 |
| 20260508014524 | 17 | 349 | 4.8 | 12.9 | 0.05 | 0.05 | 0.05 | 63 | 1009.9 |
| 20260508013019 | 17 | 282 | 3.2 | 8.0 | 0.03 | 0.03 | 0.03 | 61 | 1010.0 |
| 20260508011519 | 18 | 293 | 9.7 | 12.9 | 0.00 | 0.00 | 0.00 | 59 | 1009.8 |
| 20260508010017 | 18 | 277 | 3.2 | 8.0 | 0.00 | 0.00 | 0.00 | 61 | 1009.8 |
| 20260508004514 | 18 | 260 | 6.4 | 14.5 | 0.00 | 0.00 | 0.00 | 64 | 1009.9 |
| 20260508003013 | 18 | 263 | 6.4 | 16.1 | 0.00 | 0.00 | 0.00 | 64 | 1009.8 |
| 20260508001522 | 18 | 281 | 3.2 | 16.1 | 0.00 | 0.00 | 0.00 | 65 | 1009.6 |
| 20260508000008 | 18 | 277 | 6.4 | 16.1 | 0.00 | 0.00 | 0.00 | 64 | 1009.3 |
| 20260507234508 | 18 | 271 | 6.4 | 12.9 | 0.00 | 0.00 | 0.00 | 63 | 1009.5 |
| 20260507233013 | 18 | 271 | 3.2 | 6.4 | 0.00 | 0.00 | 0.00 | 63 | 1009.3 |
| 20260507231507 | 18 | 271 | 4.8 | 8.0 | 0.00 | 0.00 | 0.00 | 63 | 1009.4 |
| 20260507230005 | 18 | 238 | 3.2 | 8.0 | 0.00 | 0.00 | 0.00 | 64 | 1009.5 |
| 20260507224500 | 19 | 232 | 1.6 | 6.4 | 0.00 | 0.00 | 0.00 | 64 | 1009.6 |
| 20260507223059 | 19 | 360 | 0.0 | 8.0 | 0.00 | 0.00 | 0.00 | 63 | 1009.6 |
| 20260507221556 | 19 | 267 | 1.6 | 14.5 | 0.00 | 0.00 | 0.00 | 60 | 1009.8 |
| 20260507220052 | 20 | 266 | 6.4 | 12.9 | 0.00 | 0.00 | 0.00 | 59 | 1009.9 |
| 20260507214554 | 20 | 11 | 1.6 | 4.8 | 0.00 | 0.00 | 0.00 | 56 | 1009.9 |
| 20260507213050 | 20 | 11 | 0.0 | 0.0 | 0.00 | 0.00 | 0.00 | 50 | 1009.8 |
| 20260507211550 | 20 | 11 | 0.0 | 6.4 | 0.00 | 0.00 | 0.00 | 55 | 1009.9 |
| 20260507210051 | 20 | 11 | 0.0 | 3.2 | 0.00 | 0.00 | 0.00 | 50 | 1009.9 |
| 20260507204553 | 20 | 55 | 0.0 | 1.6 | 0.00 | 0.00 | 0.00 | 45 | 1010.0 |
| 20260507203050 | 20 | 360 | 0.0 | 4.8 | 0.00 | 0.00 | 0.00 | 46 | 1010.0 |
| 20260507201554 | 20 | 360 | 3.2 | 9.7 | 0.00 | 0.00 | 0.00 | 46 | 1010.0 |
| 20260507200046 | 20 | 360 | 3.2 | 12.9 | 0.00 | 0.00 | 0.00 | 46 | 1009.9 |
| 20260507194547 | 21 | 360 | 4.8 | 14.5 | 0.00 | 0.00 | 0.00 | 45 | 1010.0 |
| 20260507193050 | 21 | 360 | 4.8 | 12.9 | 0.00 | 0.00 | 0.00 | 46 | 1010.0 |
| 20260507191551 | 21 | 360 | 0.0 | 8.0 | 0.00 | 0.00 | 0.00 | 46 | 1010.0 |
| 20260507190046 | 21 | 360 | 4.8 | 8.0 | 0.00 | 0.00 | 0.00 | 44 | 1009.9 |
| 20260507184544 | 21 | 360 | 0.0 | 4.8 | 0.00 | 0.00 | 0.00 | 45 | 1009.9 |
| 20260507183043 | 21 | 360 | 1.6 | 8.0 | 0.00 | 0.00 | 0.00 | 45 | 1009.9 |
| 20260507181541 | 21 | 360 | 4.8 | 12.9 | 0.00 | 0.00 | 0.00 | 43 | 1009.8 |
| 20260507180040 | 21 | 360 | 4.8 | 17.7 | 0.00 | 0.00 | 0.00 | 44 | 1009.7 |
| 20260507174545 | 21 | 360 | 9.7 | 16.1 | 0.00 | 0.00 | 0.00 | 45 | 1009.4 |
| 20260507173038 | 21 | 360 | 6.4 | 20.9 | 0.00 | 0.00 | 0.00 | 45 | 1009.2 |
| 20260507171539 | 21 | 360 | 9.7 | 19.3 | 0.00 | 0.00 | 0.00 | 46 | 1009.2 |
| 20260507170044 | 21 | 360 | 8.0 | 17.7 | 0.00 | 0.00 | 0.00 | 46 | 1009.2 |
| 20260507164535 | 21 | 360 | 9.7 | 19.3 | 0.00 | 0.00 | 0.00 | 46 | 1009.4 |
| 20260507163034 | 21 | 117 | 9.7 | 17.7 | 0.00 | 0.00 | 0.00 | 47 | 1009.5 |
| 20260507161534 | 21 | 112 | 8.0 | 19.3 | 0.00 | 0.00 | 0.00 | 47 | 1009.4 |
| 20260507160035 | 21 | 69 | 9.7 | 20.9 | 0.00 | 0.00 | 0.00 | 46 | 1009.6 |
| 20260507154532 | 21 | 360 | 4.8 | 16.1 | 0.00 | 0.00 | 0.00 | 46 | 1009.7 |
| 20260507153030 | 21 | 360 | 8.0 | 20.9 | 0.00 | 0.00 | 0.00 | 47 | 1009.5 |
| 20260507151530 | 21 | 360 | 6.4 | 17.7 | 0.00 | 0.00 | 0.00 | 47 | 1009.7 |
| 20260507150033 | 21 | 360 | 4.8 | 29.0 | 0.00 | 0.00 | 0.00 | 48 | 1009.8 |
| 20260507144528 | 21 | 360 | 11.3 | 24.1 | 0.00 | 0.00 | 0.00 | 48 | 1009.8 |
| 20260507143031 | 22 | 52 | 14.5 | 27.4 | 0.00 | 0.00 | 0.00 | 46 | 1009.8 |
| 20260507141527 | 22 | 76 | 12.9 | 20.9 | 0.00 | 0.00 | 0.00 | 46 | 1009.8 |
| 20260507140127 | 22 | 140 | 3.2 | 12.9 | 0.00 | 0.00 | 0.00 | 45 | 1009.8 |
| 20260507134524 | 22 | 172 | 4.8 | 16.1 | 0.00 | 0.00 | 0.00 | 43 | 1009.8 |
| 20260507133022 | 23 | 119 | 3.2 | 12.9 | 0.00 | 0.00 | 0.00 | 42 | 1010.1 |
| 20260507131527 | 23 | 103 | 3.2 | 12.9 | 0.00 | 0.00 | 0.00 | 40 | 1010.2 |
| 20260507130020 | 23 | 147 | 3.2 | 9.7 | 0.00 | 0.00 | 0.00 | 40 | 1010.3 |
| 20260507124519 | 23 | 155 | 4.8 | 9.7 | 0.00 | 0.03 | 0.00 | 41 | 1010.2 |
| 20260507123016 | 23 | 112 | 3.2 | 11.3 | 0.00 | 0.03 | 0.00 | 44 | 1010.3 |
| 20260507121516 | 23 | 221 | 3.2 | 11.3 | 0.00 | 0.03 | 0.00 | 42 | 1010.4 |
| 20260507120029 | 23 | 211 | 4.8 | 11.3 | 0.00 | 0.03 | 0.00 | 43 | 1010.5 |
| 20260507114514 | 23 | 155 | 3.2 | 11.3 | 0.00 | 0.03 | 0.00 | 41 | 1010.5 |
| 20260507113013 | 23 | 99 | 3.2 | 14.5 | 0.00 | 0.03 | 0.00 | 43 | 1010.7 |
| 20260507111511 | 23 | 157 | 4.8 | 11.3 | 0.00 | 0.03 | 0.00 | 41 | 1010.7 |
| 20260507110010 | 23 | 212 | 4.8 | 12.9 | 0.00 | 0.03 | 0.00 | 42 | 1011.0 |
| 20260507104511 | 22 | 169 | 1.6 | 8.0 | 0.00 | 0.03 | 0.00 | 46 | 1010.9 |
| 20260507103007 | 22 | 227 | 4.8 | 11.3 | 0.00 | 0.03 | 0.00 | 48 | 1011.1 |
| 20260507101506 | 23 | 263 | 1.6 | 9.7 | 0.00 | 0.03 | 0.00 | 48 | 1011.3 |
| 20260507100002 | 22 | 25 | 6.4 | 9.7 | 0.00 | 0.03 | 0.00 | 48 | 1011.2 |
| 20260507094558 | 21 | 11 | 0.0 | 6.4 | 0.00 | 0.03 | 0.00 | 52 | 1011.3 |
| 20260507093058 | 21 | 36 | 3.2 | 9.7 | 0.00 | 0.03 | 0.00 | 53 | 1011.5 |
| 20260507091557 | 21 | 360 | 4.8 | 8.0 | 0.00 | 0.03 | 0.00 | 53 | 1011.6 |
| 20260507090055 | 20 | 130 | 1.6 | 9.7 | 0.00 | 0.03 | 0.00 | 56 | 1011.7 |
| 20260507084548 | 20 | 99 | 6.4 | 12.9 | 0.00 | 0.03 | 0.00 | 58 | 1011.7 |
| 20260507083045 | 20 | 162 | 1.6 | 9.7 | 0.00 | 0.03 | 0.00 | 58 | 1011.7 |
| 20260507081549 | 20 | 93 | 4.8 | 9.7 | 0.00 | 0.03 | 0.00 | 58 | 1011.3 |
| 20260507080044 | 19 | 12 | 0.0 | 4.8 | 0.00 | 0.03 | 0.00 | 61 | 1011.3 |
| 20260507074553 | 18 | 13 | 1.6 | 9.7 | 0.00 | 0.03 | 0.00 | 64 | 1011.3 |
| 20260507073034 | 17 | 360 | 6.4 | 14.5 | 0.00 | 0.03 | 0.00 | 64 | 1011.5 |